Terminal Aerodrome Forecast
Issued by NWS

Home | Current Version | Previous Version | Text Only | Print | Product List | Glossary On
Versions: 1 2 3 4 5 6 7 8 9 10 11 12 13 14 15
000
FTUS44 KLIX 202332
TAFHUM
TAF
KHUM 202332Z 2100/2124 03008KT P6SM SCT100 SCT250
     FM211400 11009KT P6SM SCT150 SCT250
     FM211600 12010KT P6SM SCT035 BKN250
     FM211900 13010KT P6SM BKN030 BKN200
     FM212300 13009KT P6SM OVC040=

USA.gov is the U.S. government's official web portal to all federal, state and local government web resources and services.